sensor_id;sensor_type;location;lat;lon;timestamp;temperature;humidity
6865;DHT22;3471;49.678;8.388;2023-08-07T00:00:57;15.00;99.90
6865;DHT22;3471;49.678;8.388;2023-08-07T00:03:23;15.00;99.90
6865;DHT22;3471;49.678;8.388;2023-08-07T00:05:49;15.00;99.90
6865;DHT22;3471;49.678;8.388;2023-08-07T00:08:17;15.00;99.90
6865;DHT22;3471;49.678;8.388;2023-08-07T00:10:42;15.00;99.90
6865;DHT22;3471;49.678;8.388;2023-08-07T00:13:08;15.00;99.90
6865;DHT22;3471;49.678;8.388;2023-08-07T00:15:36;15.10;99.90
6865;DHT22;3471;49.678;8.388;2023-08-07T00:18:02;15.10;99.90
6865;DHT22;3471;49.678;8.388;2023-08-07T00:20:28;15.10;99.90
6865;DHT22;3471;49.678;8.388;2023-08-07T00:22:53;15.00;99.90
6865;DHT22;3471;49.678;8.388;2023-08-07T00:25:19;15.00;99.90
6865;DHT22;3471;49.678;8.388;2023-08-07T00:27:44;15.00;99.90
6865;DHT22;3471;49.678;8.388;2023-08-07T00:30:11;15.00;99.90
6865;DHT22;3471;49.678;8.388;2023-08-07T00:32:36;15.00;99.90
6865;DHT22;3471;49.678;8.388;2023-08-07T00:35:02;15.00;99.90
6865;DHT22;3471;49.678;8.388;2023-08-07T00:37:30;15.00;99.90
6865;DHT22;3471;49.678;8.388;2023-08-07T00:39:55;14.90;99.90
6865;DHT22;3471;49.678;8.388;2023-08-07T00:42:21;14.90;99.90
6865;DHT22;3471;49.678;8.388;2023-08-07T00:44:46;14.90;99.90
6865;DHT22;3471;49.678;8.388;2023-08-07T00:47:12;14.90;99.90
6865;DHT22;3471;49.678;8.388;2023-08-07T00:49:37;14.90;99.90
6865;DHT22;3471;49.678;8.388;2023-08-07T00:52:04;14.90;99.90
6865;DHT22;3471;49.678;8.388;2023-08-07T00:54:30;14.90;99.90
6865;DHT22;3471;49.678;8.388;2023-08-07T00:57:00;14.90;99.90
6865;DHT22;3471;49.678;8.388;2023-08-07T00:59:32;14.90;99.90
6865;DHT22;3471;49.678;8.388;2023-08-07T01:01:57;14.90;99.90
6865;DHT22;3471;49.678;8.388;2023-08-07T01:04:23;14.90;99.90
6865;DHT22;3471;49.678;8.388;2023-08-07T01:06:48;14.90;99.90
6865;DHT22;3471;49.678;8.388;2023-08-07T01:09:14;14.90;99.90
6865;DHT22;3471;49.678;8.388;2023-08-07T01:11:45;15.00;99.90
6865;DHT22;3471;49.678;8.388;2023-08-07T01:17:00;15.00;99.90
6865;DHT22;3471;49.678;8.388;2023-08-07T01:19:28;15.00;99.90
6865;DHT22;3471;49.678;8.388;2023-08-07T01:22:19;15.00;99.90
6865;DHT22;3471;49.678;8.388;2023-08-07T01:24:49;15.00;99.90
6865;DHT22;3471;49.678;8.388;2023-08-07T01:35:28;15.00;99.90
6865;DHT22;3471;49.678;8.388;2023-08-07T01:37:56;15.00;99.90
6865;DHT22;3471;49.678;8.388;2023-08-07T01:40:22;15.00;99.90
6865;DHT22;3471;49.678;8.388;2023-08-07T01:42:49;15.00;99.90
6865;DHT22;3471;49.678;8.388;2023-08-07T01:45:24;15.00;99.90
6865;DHT22;3471;49.678;8.388;2023-08-07T01:47:50;14.90;99.90
6865;DHT22;3471;49.678;8.388;2023-08-07T01:50:18;14.90;99.90
6865;DHT22;3471;49.678;8.388;2023-08-07T01:52:43;14.90;99.90
6865;DHT22;3471;49.678;8.388;2023-08-07T01:55:09;14.90;99.90
6865;DHT22;3471;49.678;8.388;2023-08-07T01:57:35;14.90;99.90
6865;DHT22;3471;49.678;8.388;2023-08-07T02:00:00;14.90;99.90
6865;DHT22;3471;49.678;8.388;2023-08-07T02:02:26;14.90;99.90
6865;DHT22;3471;49.678;8.388;2023-08-07T02:04:51;14.90;99.90
6865;DHT22;3471;49.678;8.388;2023-08-07T02:07:17;14.90;99.90
6865;DHT22;3471;49.678;8.388;2023-08-07T02:09:42;14.90;99.90
6865;DHT22;3471;49.678;8.388;2023-08-07T02:12:08;14.90;99.90
6865;DHT22;3471;49.678;8.388;2023-08-07T02:14:34;14.90;99.90
6865;DHT22;3471;49.678;8.388;2023-08-07T02:16:59;14.90;99.90
6865;DHT22;3471;49.678;8.388;2023-08-07T02:19:25;14.90;99.90
6865;DHT22;3471;49.678;8.388;2023-08-07T02:21:50;14.90;99.90
6865;DHT22;3471;49.678;8.388;2023-08-07T02:24:16;14.90;99.90
6865;DHT22;3471;49.678;8.388;2023-08-07T02:26:43;14.90;99.90
6865;DHT22;3471;49.678;8.388;2023-08-07T02:29:09;14.90;99.90
6865;DHT22;3471;49.678;8.388;2023-08-07T02:31:34;14.90;99.90
6865;DHT22;3471;49.678;8.388;2023-08-07T02:34:00;14.80;99.90
6865;DHT22;3471;49.678;8.388;2023-08-07T02:36:25;14.80;99.90
6865;DHT22;3471;49.678;8.388;2023-08-07T02:38:51;14.80;99.90
6865;DHT22;3471;49.678;8.388;2023-08-07T02:41:16;14.80;99.90
6865;DHT22;3471;49.678;8.388;2023-08-07T02:43:42;14.80;99.90
6865;DHT22;3471;49.678;8.388;2023-08-07T02:46:08;14.80;99.90
6865;DHT22;3471;49.678;8.388;2023-08-07T02:48:34;14.80;99.90
6865;DHT22;3471;49.678;8.388;2023-08-07T02:50:59;14.80;99.90
6865;DHT22;3471;49.678;8.388;2023-08-07T02:53:25;14.80;99.90
6865;DHT22;3471;49.678;8.388;2023-08-07T02:55:50;14.80;99.90
6865;DHT22;3471;49.678;8.388;2023-08-07T02:58:16;14.80;99.90
6865;DHT22;3471;49.678;8.388;2023-08-07T03:00:41;14.80;99.90
6865;DHT22;3471;49.678;8.388;2023-08-07T03:03:08;14.80;99.90
6865;DHT22;3471;49.678;8.388;2023-08-07T03:05:34;14.80;99.90
6865;DHT22;3471;49.678;8.388;2023-08-07T03:08:00;14.80;99.90
6865;DHT22;3471;49.678;8.388;2023-08-07T03:10:25;14.70;99.90
6865;DHT22;3471;49.678;8.388;2023-08-07T03:12:51;14.70;99.90
6865;DHT22;3471;49.678;8.388;2023-08-07T03:15:16;14.70;99.90
6865;DHT22;3471;49.678;8.388;2023-08-07T03:17:42;14.70;99.90
6865;DHT22;3471;49.678;8.388;2023-08-07T03:20:08;14.70;99.90
6865;DHT22;3471;49.678;8.388;2023-08-07T03:22:34;14.70;99.90
6865;DHT22;3471;49.678;8.388;2023-08-07T03:25:00;14.80;99.90
6865;DHT22;3471;49.678;8.388;2023-08-07T03:27:26;14.70;99.90
6865;DHT22;3471;49.678;8.388;2023-08-07T03:29:51;14.70;99.90
6865;DHT22;3471;49.678;8.388;2023-08-07T03:32:17;14.80;99.90
6865;DHT22;3471;49.678;8.388;2023-08-07T03:34:42;14.70;99.90
6865;DHT22;3471;49.678;8.388;2023-08-07T03:37:08;14.70;99.90
6865;DHT22;3471;49.678;8.388;2023-08-07T03:39:34;14.70;99.90
6865;DHT22;3471;49.678;8.388;2023-08-07T03:41:59;14.70;99.90
6865;DHT22;3471;49.678;8.388;2023-08-07T03:44:25;14.80;99.90
6865;DHT22;3471;49.678;8.388;2023-08-07T03:46:50;14.80;99.90
6865;DHT22;3471;49.678;8.388;2023-08-07T03:49:16;14.70;99.90
6865;DHT22;3471;49.678;8.388;2023-08-07T03:51:42;14.80;99.90
6865;DHT22;3471;49.678;8.388;2023-08-07T03:54:08;14.80;99.90
6865;DHT22;3471;49.678;8.388;2023-08-07T03:56:33;14.90;99.90
6865;DHT22;3471;49.678;8.388;2023-08-07T03:59:02;14.80;99.90
6865;DHT22;3471;49.678;8.388;2023-08-07T04:01:28;14.90;99.90
6865;DHT22;3471;49.678;8.388;2023-08-07T04:03:53;14.90;99.90
6865;DHT22;3471;49.678;8.388;2023-08-07T04:06:19;14.90;99.90
6865;DHT22;3471;49.678;8.388;2023-08-07T04:08:46;14.90;99.90
6865;DHT22;3471;49.678;8.388;2023-08-07T04:11:12;14.90;99.90
6865;DHT22;3471;49.678;8.388;2023-08-07T04:13:38;14.90;99.90
6865;DHT22;3471;49.678;8.388;2023-08-07T04:16:04;14.90;99.90
6865;DHT22;3471;49.678;8.388;2023-08-07T04:18:30;14.90;99.90
6865;DHT22;3471;49.678;8.388;2023-08-07T04:20:57;14.90;99.90
6865;DHT22;3471;49.678;8.388;2023-08-07T04:23:23;14.80;99.90
6865;DHT22;3471;49.678;8.388;2023-08-07T04:25:49;14.80;99.90
6865;DHT22;3471;49.678;8.388;2023-08-07T04:28:15;14.90;99.90
6865;DHT22;3471;49.678;8.388;2023-08-07T04:30:42;14.80;99.90
6865;DHT22;3471;49.678;8.388;2023-08-07T04:33:08;14.80;99.90
6865;DHT22;3471;49.678;8.388;2023-08-07T04:35:34;14.80;99.90
6865;DHT22;3471;49.678;8.388;2023-08-07T04:38:00;14.80;99.90
6865;DHT22;3471;49.678;8.388;2023-08-07T04:40:25;14.80;99.90
6865;DHT22;3471;49.678;8.388;2023-08-07T04:42:51;14.80;99.90
6865;DHT22;3471;49.678;8.388;2023-08-07T04:45:17;14.80;99.90
6865;DHT22;3471;49.678;8.388;2023-08-07T04:47:42;14.80;99.90
6865;DHT22;3471;49.678;8.388;2023-08-07T04:50:08;14.80;99.90
6865;DHT22;3471;49.678;8.388;2023-08-07T04:52:35;14.80;99.90
6865;DHT22;3471;49.678;8.388;2023-08-07T04:55:01;14.90;99.90
6865;DHT22;3471;49.678;8.388;2023-08-07T04:57:26;14.80;99.90
6865;DHT22;3471;49.678;8.388;2023-08-07T04:59:52;14.80;99.90
6865;DHT22;3471;49.678;8.388;2023-08-07T05:02:18;14.80;99.90
6865;DHT22;3471;49.678;8.388;2023-08-07T05:04:44;14.80;99.90
6865;DHT22;3471;49.678;8.388;2023-08-07T05:07:09;14.80;99.90
6865;DHT22;3471;49.678;8.388;2023-08-07T05:09:35;14.90;99.90
6865;DHT22;3471;49.678;8.388;2023-08-07T05:12:01;14.90;99.90
6865;DHT22;3471;49.678;8.388;2023-08-07T05:14:29;14.80;99.90
6865;DHT22;3471;49.678;8.388;2023-08-07T05:16:54;14.80;99.90
6865;DHT22;3471;49.678;8.388;2023-08-07T05:19:20;14.90;99.90
6865;DHT22;3471;49.678;8.388;2023-08-07T05:21:47;14.90;99.90
6865;DHT22;3471;49.678;8.388;2023-08-07T05:24:15;14.90;99.90
6865;DHT22;3471;49.678;8.388;2023-08-07T05:26:41;14.80;99.90
6865;DHT22;3471;49.678;8.388;2023-08-07T05:29:07;14.90;99.90
6865;DHT22;3471;49.678;8.388;2023-08-07T05:31:33;14.80;99.90
6865;DHT22;3471;49.678;8.388;2023-08-07T05:33:59;14.80;99.90
6865;DHT22;3471;49.678;8.388;2023-08-07T05:36:24;14.90;99.90
6865;DHT22;3471;49.678;8.388;2023-08-07T05:38:50;14.90;99.90
6865;DHT22;3471;49.678;8.388;2023-08-07T05:41:16;14.90;99.90
6865;DHT22;3471;49.678;8.388;2023-08-07T05:43:42;14.90;99.90
6865;DHT22;3471;49.678;8.388;2023-08-07T05:46:07;15.00;99.90
6865;DHT22;3471;49.678;8.388;2023-08-07T05:48:33;14.90;99.90
6865;DHT22;3471;49.678;8.388;2023-08-07T05:50:58;14.90;99.90
6865;DHT22;3471;49.678;8.388;2023-08-07T05:53:24;15.00;99.90
6865;DHT22;3471;49.678;8.388;2023-08-07T05:55:50;15.00;99.90
6865;DHT22;3471;49.678;8.388;2023-08-07T05:58:15;15.00;99.90
6865;DHT22;3471;49.678;8.388;2023-08-07T06:00:41;15.10;99.90
6865;DHT22;3471;49.678;8.388;2023-08-07T06:03:06;15.20;99.90
6865;DHT22;3471;49.678;8.388;2023-08-07T06:05:33;15.20;99.90
6865;DHT22;3471;49.678;8.388;2023-08-07T06:07:58;15.20;99.90
6865;DHT22;3471;49.678;8.388;2023-08-07T06:10:24;15.20;99.90
6865;DHT22;3471;49.678;8.388;2023-08-07T06:12:50;15.20;99.90
6865;DHT22;3471;49.678;8.388;2023-08-07T06:15:15;15.20;99.90
6865;DHT22;3471;49.678;8.388;2023-08-07T06:17:41;15.20;99.90
6865;DHT22;3471;49.678;8.388;2023-08-07T06:20:08;15.20;99.90
6865;DHT22;3471;49.678;8.388;2023-08-07T06:22:35;15.20;99.90
6865;DHT22;3471;49.678;8.388;2023-08-07T06:25:00;15.20;99.90
6865;DHT22;3471;49.678;8.388;2023-08-07T06:27:26;15.20;99.90
6865;DHT22;3471;49.678;8.388;2023-08-07T06:29:52;15.20;99.90
6865;DHT22;3471;49.678;8.388;2023-08-07T06:32:18;15.20;99.90
6865;DHT22;3471;49.678;8.388;2023-08-07T06:34:44;15.30;99.90
6865;DHT22;3471;49.678;8.388;2023-08-07T06:37:11;15.30;99.90
6865;DHT22;3471;49.678;8.388;2023-08-07T06:39:37;15.30;99.90
6865;DHT22;3471;49.678;8.388;2023-08-07T06:42:03;15.30;99.90
6865;DHT22;3471;49.678;8.388;2023-08-07T06:44:29;15.30;99.90
6865;DHT22;3471;49.678;8.388;2023-08-07T06:46:55;15.30;99.90
6865;DHT22;3471;49.678;8.388;2023-08-07T06:49:20;15.30;99.90
6865;DHT22;3471;49.678;8.388;2023-08-07T06:51:46;15.40;99.90
6865;DHT22;3471;49.678;8.388;2023-08-07T06:54:11;15.30;99.90
6865;DHT22;3471;49.678;8.388;2023-08-07T06:56:38;15.30;99.90
6865;DHT22;3471;49.678;8.388;2023-08-07T06:59:06;15.30;99.90
6865;DHT22;3471;49.678;8.388;2023-08-07T07:01:31;15.20;99.90
6865;DHT22;3471;49.678;8.388;2023-08-07T07:03:57;15.20;99.90
6865;DHT22;3471;49.678;8.388;2023-08-07T07:06:23;15.20;99.90
6865;DHT22;3471;49.678;8.388;2023-08-07T07:08:51;15.10;99.90
6865;DHT22;3471;49.678;8.388;2023-08-07T07:11:19;15.10;99.90
6865;DHT22;3471;49.678;8.388;2023-08-07T07:13:46;15.10;99.90
6865;DHT22;3471;49.678;8.388;2023-08-07T07:16:13;15.10;99.90
6865;DHT22;3471;49.678;8.388;2023-08-07T07:18:39;15.20;99.90
6865;DHT22;3471;49.678;8.388;2023-08-07T07:21:05;15.10;99.90
6865;DHT22;3471;49.678;8.388;2023-08-07T07:23:30;15.20;99.90
6865;DHT22;3471;49.678;8.388;2023-08-07T07:25:56;15.20;99.90
6865;DHT22;3471;49.678;8.388;2023-08-07T07:28:23;15.10;99.90
6865;DHT22;3471;49.678;8.388;2023-08-07T07:30:49;15.20;99.90
6865;DHT22;3471;49.678;8.388;2023-08-07T07:33:16;15.30;99.90
6865;DHT22;3471;49.678;8.388;2023-08-07T07:35:41;15.30;99.90
6865;DHT22;3471;49.678;8.388;2023-08-07T07:38:07;15.30;99.90
6865;DHT22;3471;49.678;8.388;2023-08-07T07:40:34;15.30;99.90
6865;DHT22;3471;49.678;8.388;2023-08-07T07:43:00;15.30;99.90
6865;DHT22;3471;49.678;8.388;2023-08-07T07:45:25;15.30;99.90
6865;DHT22;3471;49.678;8.388;2023-08-07T07:47:51;15.40;99.90
6865;DHT22;3471;49.678;8.388;2023-08-07T07:50:16;15.40;99.90
6865;DHT22;3471;49.678;8.388;2023-08-07T07:52:42;15.40;99.90
6865;DHT22;3471;49.678;8.388;2023-08-07T07:55:09;15.40;99.90
6865;DHT22;3471;49.678;8.388;2023-08-07T07:57:35;15.50;99.90
6865;DHT22;3471;49.678;8.388;2023-08-07T08:00:01;15.50;99.90
6865;DHT22;3471;49.678;8.388;2023-08-07T08:02:28;15.50;99.90
6865;DHT22;3471;49.678;8.388;2023-08-07T08:04:53;15.50;99.90
6865;DHT22;3471;49.678;8.388;2023-08-07T08:07:19;15.60;99.90
6865;DHT22;3471;49.678;8.388;2023-08-07T08:09:45;15.60;99.90
6865;DHT22;3471;49.678;8.388;2023-08-07T08:12:10;15.70;99.90
6865;DHT22;3471;49.678;8.388;2023-08-07T08:14:36;15.70;99.90
6865;DHT22;3471;49.678;8.388;2023-08-07T08:17:02;15.70;99.90
6865;DHT22;3471;49.678;8.388;2023-08-07T08:19:27;15.80;99.90
6865;DHT22;3471;49.678;8.388;2023-08-07T08:21:53;15.80;99.90
6865;DHT22;3471;49.678;8.388;2023-08-07T08:24:19;15.80;99.90
6865;DHT22;3471;49.678;8.388;2023-08-07T08:26:44;15.90;99.90
6865;DHT22;3471;49.678;8.388;2023-08-07T08:29:14;15.90;99.90
6865;DHT22;3471;49.678;8.388;2023-08-07T08:31:39;15.90;99.90
6865;DHT22;3471;49.678;8.388;2023-08-07T08:34:05;16.00;99.90
6865;DHT22;3471;49.678;8.388;2023-08-07T08:36:30;16.10;99.90
6865;DHT22;3471;49.678;8.388;2023-08-07T08:38:56;16.10;99.90
6865;DHT22;3471;49.678;8.388;2023-08-07T08:41:22;16.20;99.90
6865;DHT22;3471;49.678;8.388;2023-08-07T08:43:49;16.20;99.90
6865;DHT22;3471;49.678;8.388;2023-08-07T08:46:19;16.30;99.90
6865;DHT22;3471;49.678;8.388;2023-08-07T08:48:50;16.30;99.90
6865;DHT22;3471;49.678;8.388;2023-08-07T08:51:16;16.30;99.90
6865;DHT22;3471;49.678;8.388;2023-08-07T08:53:45;16.30;99.90
6865;DHT22;3471;49.678;8.388;2023-08-07T08:56:11;16.20;99.90
6865;DHT22;3471;49.678;8.388;2023-08-07T08:58:37;16.10;99.90
6865;DHT22;3471;49.678;8.388;2023-08-07T09:01:04;16.10;99.90
6865;DHT22;3471;49.678;8.388;2023-08-07T09:03:31;16.00;99.90
6865;DHT22;3471;49.678;8.388;2023-08-07T09:05:58;16.00;99.90
6865;DHT22;3471;49.678;8.388;2023-08-07T09:08:27;15.90;99.90
6865;DHT22;3471;49.678;8.388;2023-08-07T09:10:55;15.90;99.90
6865;DHT22;3471;49.678;8.388;2023-08-07T09:13:23;15.90;99.90
6865;DHT22;3471;49.678;8.388;2023-08-07T09:15:50;15.90;99.90
6865;DHT22;3471;49.678;8.388;2023-08-07T09:18:17;15.90;99.90
6865;DHT22;3471;49.678;8.388;2023-08-07T09:20:44;15.90;99.90
6865;DHT22;3471;49.678;8.388;2023-08-07T09:23:10;16.00;99.90
6865;DHT22;3471;49.678;8.388;2023-08-07T09:25:36;16.00;99.90
6865;DHT22;3471;49.678;8.388;2023-08-07T09:28:05;16.00;99.90
6865;DHT22;3471;49.678;8.388;2023-08-07T09:30:32;16.00;99.90
6865;DHT22;3471;49.678;8.388;2023-08-07T09:33:00;16.00;99.90
6865;DHT22;3471;49.678;8.388;2023-08-07T09:35:26;16.10;99.90
6865;DHT22;3471;49.678;8.388;2023-08-07T09:37:52;16.10;99.90
6865;DHT22;3471;49.678;8.388;2023-08-07T09:40:18;16.20;99.90
6865;DHT22;3471;49.678;8.388;2023-08-07T09:42:44;16.20;99.90
6865;DHT22;3471;49.678;8.388;2023-08-07T09:45:26;16.20;99.90
6865;DHT22;3471;49.678;8.388;2023-08-07T09:48:05;16.20;99.90
6865;DHT22;3471;49.678;8.388;2023-08-07T09:50:32;16.20;99.90
6865;DHT22;3471;49.678;8.388;2023-08-07T09:52:58;16.20;99.90
6865;DHT22;3471;49.678;8.388;2023-08-07T09:55:24;16.20;99.90
6865;DHT22;3471;49.678;8.388;2023-08-07T09:57:50;16.20;99.90
6865;DHT22;3471;49.678;8.388;2023-08-07T10:00:17;16.10;99.90
6865;DHT22;3471;49.678;8.388;2023-08-07T10:02:46;16.10;99.90
6865;DHT22;3471;49.678;8.388;2023-08-07T10:05:13;16.10;99.90
6865;DHT22;3471;49.678;8.388;2023-08-07T10:07:39;16.10;99.90
6865;DHT22;3471;49.678;8.388;2023-08-07T10:10:06;16.10;99.90
6865;DHT22;3471;49.678;8.388;2023-08-07T10:12:32;16.10;99.90
6865;DHT22;3471;49.678;8.388;2023-08-07T10:15:01;16.00;99.90
6865;DHT22;3471;49.678;8.388;2023-08-07T10:17:28;16.00;99.90
6865;DHT22;3471;49.678;8.388;2023-08-07T10:19:54;16.00;99.90
6865;DHT22;3471;49.678;8.388;2023-08-07T10:22:22;16.00;99.90
6865;DHT22;3471;49.678;8.388;2023-08-07T10:24:50;16.00;99.90
6865;DHT22;3471;49.678;8.388;2023-08-07T10:27:17;15.90;99.90
6865;DHT22;3471;49.678;8.388;2023-08-07T10:29:46;15.90;99.90
6865;DHT22;3471;49.678;8.388;2023-08-07T10:32:13;15.80;99.90
6865;DHT22;3471;49.678;8.388;2023-08-07T10:34:42;15.90;99.90
6865;DHT22;3471;49.678;8.388;2023-08-07T10:40:04;15.90;99.90
6865;DHT22;3471;49.678;8.388;2023-08-07T10:42:55;15.90;99.90
6865;DHT22;3471;49.678;8.388;2023-08-07T10:45:22;15.90;99.90
6865;DHT22;3471;49.678;8.388;2023-08-07T10:48:08;16.00;99.90
6865;DHT22;3471;49.678;8.388;2023-08-07T10:50:57;16.00;99.90
6865;DHT22;3471;49.678;8.388;2023-08-07T10:55:58;16.10;99.90
6865;DHT22;3471;49.678;8.388;2023-08-07T10:58:31;16.20;99.90
6865;DHT22;3471;49.678;8.388;2023-08-07T11:01:16;16.40;99.90
6865;DHT22;3471;49.678;8.388;2023-08-07T11:03:49;16.50;99.90
6865;DHT22;3471;49.678;8.388;2023-08-07T11:06:16;16.60;99.90
6865;DHT22;3471;49.678;8.388;2023-08-07T11:08:42;16.70;99.90
6865;DHT22;3471;49.678;8.388;2023-08-07T11:11:08;16.80;99.90
6865;DHT22;3471;49.678;8.388;2023-08-07T11:13:34;16.90;99.90
6865;DHT22;3471;49.678;8.388;2023-08-07T11:16:03;17.00;99.90
6865;DHT22;3471;49.678;8.388;2023-08-07T11:18:30;17.20;99.90
6865;DHT22;3471;49.678;8.388;2023-08-07T11:20:56;17.30;99.90
6865;DHT22;3471;49.678;8.388;2023-08-07T11:23:25;17.50;99.90
6865;DHT22;3471;49.678;8.388;2023-08-07T11:25:51;17.60;99.90
6865;DHT22;3471;49.678;8.388;2023-08-07T11:28:21;17.70;99.90
6865;DHT22;3471;49.678;8.388;2023-08-07T11:30:49;17.90;99.90
6865;DHT22;3471;49.678;8.388;2023-08-07T11:33:17;17.90;99.90
6865;DHT22;3471;49.678;8.388;2023-08-07T11:35:43;18.00;99.90
6865;DHT22;3471;49.678;8.388;2023-08-07T11:38:09;18.00;99.90
6865;DHT22;3471;49.678;8.388;2023-08-07T11:40:35;18.00;99.90
6865;DHT22;3471;49.678;8.388;2023-08-07T11:43:01;18.10;99.90
6865;DHT22;3471;49.678;8.388;2023-08-07T11:45:27;18.10;99.90
6865;DHT22;3471;49.678;8.388;2023-08-07T11:47:53;18.10;99.90
6865;DHT22;3471;49.678;8.388;2023-08-07T11:50:22;18.10;99.90
6865;DHT22;3471;49.678;8.388;2023-08-07T11:52:48;18.20;99.90
6865;DHT22;3471;49.678;8.388;2023-08-07T11:55:17;18.20;99.90
6865;DHT22;3471;49.678;8.388;2023-08-07T11:57:48;18.10;99.90
6865;DHT22;3471;49.678;8.388;2023-08-07T12:00:14;18.10;99.90
6865;DHT22;3471;49.678;8.388;2023-08-07T12:02:43;18.10;99.90
6865;DHT22;3471;49.678;8.388;2023-08-07T12:05:10;18.00;99.90
6865;DHT22;3471;49.678;8.388;2023-08-07T12:07:39;18.10;99.90
6865;DHT22;3471;49.678;8.388;2023-08-07T12:10:07;18.10;99.90
6865;DHT22;3471;49.678;8.388;2023-08-07T12:12:39;18.10;99.90
6865;DHT22;3471;49.678;8.388;2023-08-07T12:15:09;18.10;99.90
6865;DHT22;3471;49.678;8.388;2023-08-07T12:17:36;18.20;99.90
6865;DHT22;3471;49.678;8.388;2023-08-07T12:20:06;18.20;99.90
6865;DHT22;3471;49.678;8.388;2023-08-07T12:22:33;18.30;99.90
6865;DHT22;3471;49.678;8.388;2023-08-07T12:24:58;18.40;99.90
6865;DHT22;3471;49.678;8.388;2023-08-07T12:27:24;18.50;99.90
6865;DHT22;3471;49.678;8.388;2023-08-07T12:29:51;18.50;99.90
6865;DHT22;3471;49.678;8.388;2023-08-07T12:32:16;18.60;99.90
6865;DHT22;3471;49.678;8.388;2023-08-07T12:34:42;18.70;99.90
6865;DHT22;3471;49.678;8.388;2023-08-07T12:37:07;18.70;99.90
6865;DHT22;3471;49.678;8.388;2023-08-07T12:39:34;18.80;99.90
6865;DHT22;3471;49.678;8.388;2023-08-07T12:42:00;18.90;99.90
6865;DHT22;3471;49.678;8.388;2023-08-07T12:44:25;19.10;99.90
6865;DHT22;3471;49.678;8.388;2023-08-07T12:46:51;19.30;99.90
6865;DHT22;3471;49.678;8.388;2023-08-07T12:49:18;19.50;99.90
6865;DHT22;3471;49.678;8.388;2023-08-07T12:51:44;19.70;99.90
6865;DHT22;3471;49.678;8.388;2023-08-07T12:54:10;19.80;99.90
6865;DHT22;3471;49.678;8.388;2023-08-07T12:56:35;20.10;99.90
6865;DHT22;3471;49.678;8.388;2023-08-07T12:59:01;20.40;99.90
6865;DHT22;3471;49.678;8.388;2023-08-07T13:01:28;20.50;99.90
6865;DHT22;3471;49.678;8.388;2023-08-07T13:03:53;20.50;99.90
6865;DHT22;3471;49.678;8.388;2023-08-07T13:06:19;20.50;99.90
6865;DHT22;3471;49.678;8.388;2023-08-07T13:08:45;20.50;99.90
6865;DHT22;3471;49.678;8.388;2023-08-07T13:11:11;20.60;99.90
6865;DHT22;3471;49.678;8.388;2023-08-07T13:13:37;20.60;99.90
6865;DHT22;3471;49.678;8.388;2023-08-07T13:16:04;20.90;99.90
6865;DHT22;3471;49.678;8.388;2023-08-07T13:18:29;21.40;99.90
6865;DHT22;3471;49.678;8.388;2023-08-07T13:20:55;21.80;99.90
6865;DHT22;3471;49.678;8.388;2023-08-07T13:23:21;22.10;99.90
6865;DHT22;3471;49.678;8.388;2023-08-07T13:25:47;22.10;99.90
6865;DHT22;3471;49.678;8.388;2023-08-07T13:28:13;22.10;99.90
6865;DHT22;3471;49.678;8.388;2023-08-07T13:30:39;22.20;99.90
6865;DHT22;3471;49.678;8.388;2023-08-07T13:33:05;22.70;99.90
6865;DHT22;3471;49.678;8.388;2023-08-07T13:35:30;23.40;99.90
6865;DHT22;3471;49.678;8.388;2023-08-07T13:37:58;24.20;99.90
6865;DHT22;3471;49.678;8.388;2023-08-07T13:40:23;25.00;99.90
6865;DHT22;3471;49.678;8.388;2023-08-07T13:42:49;25.50;99.90
6865;DHT22;3471;49.678;8.388;2023-08-07T13:45:14;25.90;98.70
6865;DHT22;3471;49.678;8.388;2023-08-07T13:47:40;26.00;97.70
6865;DHT22;3471;49.678;8.388;2023-08-07T13:50:06;26.00;97.70
6865;DHT22;3471;49.678;8.388;2023-08-07T13:52:33;25.70;96.30
6865;DHT22;3471;49.678;8.388;2023-08-07T13:54:59;25.30;96.70
6865;DHT22;3471;49.678;8.388;2023-08-07T13:57:24;24.90;97.50
6865;DHT22;3471;49.678;8.388;2023-08-07T13:59:50;24.40;96.90
6865;DHT22;3471;49.678;8.388;2023-08-07T14:02:15;23.80;97.60
6865;DHT22;3471;49.678;8.388;2023-08-07T14:04:41;23.20;97.70
6865;DHT22;3471;49.678;8.388;2023-08-07T14:07:10;22.70;98.40
6865;DHT22;3471;49.678;8.388;2023-08-07T14:09:36;22.30;99.10
6865;DHT22;3471;49.678;8.388;2023-08-07T14:12:02;22.10;99.90
6865;DHT22;3471;49.678;8.388;2023-08-07T14:14:28;21.90;99.80
6865;DHT22;3471;49.678;8.388;2023-08-07T14:16:54;21.80;99.90
6865;DHT22;3471;49.678;8.388;2023-08-07T14:19:23;21.70;99.90
6865;DHT22;3471;49.678;8.388;2023-08-07T14:21:48;21.60;99.90
6865;DHT22;3471;49.678;8.388;2023-08-07T14:24:15;21.60;99.90
6865;DHT22;3471;49.678;8.388;2023-08-07T14:26:42;21.70;99.90
6865;DHT22;3471;49.678;8.388;2023-08-07T14:29:08;21.90;99.90
6865;DHT22;3471;49.678;8.388;2023-08-07T14:31:34;22.30;99.90
6865;DHT22;3471;49.678;8.388;2023-08-07T14:33:59;22.80;99.90
6865;DHT22;3471;49.678;8.388;2023-08-07T14:36:25;23.70;99.90
6865;DHT22;3471;49.678;8.388;2023-08-07T14:38:50;24.40;98.30
6865;DHT22;3471;49.678;8.388;2023-08-07T14:41:17;24.80;97.70
6865;DHT22;3471;49.678;8.388;2023-08-07T14:43:43;24.80;97.10
6865;DHT22;3471;49.678;8.388;2023-08-07T14:46:08;24.80;96.30
6865;DHT22;3471;49.678;8.388;2023-08-07T14:48:34;25.00;96.20
6865;DHT22;3471;49.678;8.388;2023-08-07T14:50:59;25.70;95.80
6865;DHT22;3471;49.678;8.388;2023-08-07T14:53:25;26.30;94.30
6865;DHT22;3471;49.678;8.388;2023-08-07T14:55:50;26.60;94.50
6865;DHT22;3471;49.678;8.388;2023-08-07T14:58:16;26.90;92.50
6865;DHT22;3471;49.678;8.388;2023-08-07T15:00:42;27.20;92.40
6865;DHT22;3471;49.678;8.388;2023-08-07T15:03:07;27.10;91.60
6865;DHT22;3471;49.678;8.388;2023-08-07T15:05:33;26.90;93.40
6865;DHT22;3471;49.678;8.388;2023-08-07T15:08:00;27.00;92.70
6865;DHT22;3471;49.678;8.388;2023-08-07T15:10:26;27.30;92.20
6865;DHT22;3471;49.678;8.388;2023-08-07T15:12:52;27.30;90.60
6865;DHT22;3471;49.678;8.388;2023-08-07T15:15:17;27.00;91.60
6865;DHT22;3471;49.678;8.388;2023-08-07T15:17:43;26.30;90.50
6865;DHT22;3471;49.678;8.388;2023-08-07T15:20:09;25.80;91.70
6865;DHT22;3471;49.678;8.388;2023-08-07T15:22:35;25.30;92.00
6865;DHT22;3471;49.678;8.388;2023-08-07T15:25:01;25.30;91.90
6865;DHT22;3471;49.678;8.388;2023-08-07T15:27:27;25.40;90.50
6865;DHT22;3471;49.678;8.388;2023-08-07T15:29:52;25.70;91.00
6865;DHT22;3471;49.678;8.388;2023-08-07T15:32:18;26.10;91.00
6865;DHT22;3471;49.678;8.388;2023-08-07T15:34:45;26.00;89.70
6865;DHT22;3471;49.678;8.388;2023-08-07T15:37:11;25.80;90.50
6865;DHT22;3471;49.678;8.388;2023-08-07T15:39:36;25.50;90.70
6865;DHT22;3471;49.678;8.388;2023-08-07T15:42:02;25.50;90.50
6865;DHT22;3471;49.678;8.388;2023-08-07T15:44:28;25.80;92.10
6865;DHT22;3471;49.678;8.388;2023-08-07T15:46:53;26.20;90.30
6865;DHT22;3471;49.678;8.388;2023-08-07T15:49:19;26.40;88.40
6865;DHT22;3471;49.678;8.388;2023-08-07T15:51:44;26.50;87.00
6865;DHT22;3471;49.678;8.388;2023-08-07T15:54:10;26.60;90.00
6865;DHT22;3471;49.678;8.388;2023-08-07T15:56:35;26.40;87.40
6865;DHT22;3471;49.678;8.388;2023-08-07T15:59:01;25.90;86.70
6865;DHT22;3471;49.678;8.388;2023-08-07T16:01:27;25.60;87.20
6865;DHT22;3471;49.678;8.388;2023-08-07T16:03:53;25.20;89.00
6865;DHT22;3471;49.678;8.388;2023-08-07T16:06:18;24.80;90.40
6865;DHT22;3471;49.678;8.388;2023-08-07T16:08:45;24.40;89.80
6865;DHT22;3471;49.678;8.388;2023-08-07T16:11:11;23.90;90.70
6865;DHT22;3471;49.678;8.388;2023-08-07T16:13:36;23.50;91.40